createdAt,value
2018-05-08T00:01:37.756Z,3.97
2018-05-08T00:04:04.681Z,3.97
2018-05-08T00:06:31.549Z,3.60
2018-05-08T00:08:58.505Z,4.23
2018-05-08T00:11:25.436Z,4.43
2018-05-08T00:13:52.316Z,4.53
2018-05-08T00:16:19.227Z,4.53
2018-05-08T00:18:46.078Z,4.60
2018-05-08T00:21:13.073Z,3.93
2018-05-08T00:23:39.921Z,4.60
2018-05-08T00:26:06.785Z,4.70
2018-05-08T00:28:33.732Z,4.73
2018-05-08T00:31:00.583Z,4.20
2018-05-08T00:33:27.433Z,4.50
2018-05-08T00:35:54.360Z,4.50
2018-05-08T00:38:21.203Z,4.00
2018-05-08T00:40:48.056Z,4.67
2018-05-08T00:43:14.980Z,4.73
2018-05-08T00:45:41.902Z,4.90
2018-05-08T00:48:08.770Z,4.60
2018-05-08T00:50:35.720Z,3.90
2018-05-08T00:53:02.576Z,4.33
2018-05-08T00:55:29.424Z,4.60
2018-05-08T00:57:56.425Z,4.70
2018-05-08T01:00:23.302Z,4.40
2018-05-08T01:02:50.242Z,5.00
2018-05-08T01:05:17.169Z,4.27
2018-05-08T01:07:44.024Z,4.10
2018-05-08T01:10:11.702Z,4.90
2018-05-08T01:12:39.143Z,3.87
2018-05-08T01:15:06.082Z,4.10
2018-05-08T01:17:33.008Z,4.50
2018-05-08T01:19:59.871Z,4.73
2018-05-08T01:22:26.856Z,4.70
2018-05-08T01:24:53.702Z,4.13
2018-05-08T01:27:20.691Z,4.40
2018-05-08T01:29:47.581Z,4.60
2018-05-08T01:32:14.442Z,5.20
2018-05-08T01:34:41.380Z,4.30
2018-05-08T01:37:08.301Z,4.90
2018-05-08T01:39:35.245Z,4.10
2018-05-08T01:42:02.196Z,5.00
2018-05-08T01:44:29.149Z,4.70
2018-05-08T01:46:56.013Z,4.17
2018-05-08T01:49:22.880Z,4.67
2018-05-08T01:51:49.849Z,4.00
2018-05-08T01:54:16.753Z,3.87
2018-05-08T01:56:43.743Z,4.60
2018-05-08T01:59:10.678Z,3.73
2018-05-08T02:01:37.612Z,4.37
2018-05-08T02:04:04.486Z,3.50
2018-05-08T02:06:32.218Z,3.70
2018-05-08T02:08:59.143Z,3.30
2018-05-08T02:11:26.023Z,3.67
2018-05-08T02:13:52.948Z,4.00
2018-05-08T02:16:19.876Z,4.40
2018-05-08T02:18:46.796Z,3.30
2018-05-08T02:21:14.404Z,4.80
2018-05-08T02:23:41.361Z,4.50
2018-05-08T02:26:08.384Z,3.87
2018-05-08T02:28:35.225Z,3.90
2018-05-08T02:31:02.145Z,4.10
2018-05-08T02:33:29.806Z,4.13
2018-05-08T02:35:57.392Z,3.50
2018-05-08T02:38:24.309Z,4.00
2018-05-08T02:40:51.182Z,3.87
2018-05-08T02:43:18.106Z,3.63
2018-05-08T02:45:44.950Z,3.97
2018-05-08T02:48:12.653Z,3.53
2018-05-08T02:50:39.582Z,3.40
2018-05-08T02:53:06.440Z,3.80
2018-05-08T02:55:33.426Z,3.30
2018-05-08T02:58:00.289Z,3.57
2018-05-08T03:00:27.199Z,3.20
2018-05-08T03:02:54.057Z,3.33
2018-05-08T03:05:20.982Z,4.00
2018-05-08T03:07:47.978Z,3.77
2018-05-08T03:10:14.876Z,4.93
2018-05-08T03:12:41.811Z,4.50
2018-05-08T03:15:08.716Z,4.37
2018-05-08T03:17:35.642Z,3.50
2018-05-08T03:20:02.750Z,3.60
2018-05-08T03:22:29.684Z,3.70
2018-05-08T03:24:56.598Z,4.70
2018-05-08T03:27:23.539Z,4.00
2018-05-08T03:29:51.208Z,3.63
2018-05-08T03:32:18.145Z,4.73
2018-05-08T03:34:45.067Z,3.90
2018-05-08T03:37:12.013Z,4.10
2018-05-08T03:39:38.883Z,4.70
2018-05-08T03:42:05.819Z,4.30
2018-05-08T03:44:32.694Z,4.20
2018-05-08T03:46:59.665Z,4.03
2018-05-08T03:49:26.523Z,4.00
2018-05-08T03:51:53.462Z,4.20
2018-05-08T03:54:20.380Z,4.10
2018-05-08T03:56:47.308Z,4.53
2018-05-08T03:59:14.169Z,4.70
2018-05-08T04:01:53.324Z,5.03
2018-05-08T04:04:32.245Z,4.73
2018-05-08T04:07:11.404Z,4.50
2018-05-08T04:09:38.274Z,4.30
2018-05-08T04:12:05.214Z,4.67
2018-05-08T04:14:32.073Z,5.27
2018-05-08T04:16:59.001Z,5.27
2018-05-08T04:19:25.862Z,5.07
2018-05-08T04:21:52.797Z,5.40
2018-05-08T04:24:21.404Z,4.90
2018-05-08T04:26:55.687Z,4.93
2018-05-08T04:29:22.786Z,4.87
2018-05-08T04:31:49.645Z,5.10
2018-05-08T04:34:16.602Z,6.13
2018-05-08T04:36:53.023Z,4.73
2018-05-08T04:39:20.265Z,4.60
2018-05-08T04:41:47.812Z,4.93
2018-05-08T04:44:17.449Z,5.60
2018-05-08T04:46:44.854Z,5.50
2018-05-08T04:49:12.547Z,5.60
2018-05-08T04:51:39.525Z,5.97
2018-05-08T04:54:06.398Z,5.00
2018-05-08T04:56:33.357Z,6.43
2018-05-08T04:59:00.309Z,5.53
2018-05-08T05:01:27.178Z,5.50
2018-05-08T05:03:54.099Z,5.67
2018-05-08T05:06:20.963Z,5.30
2018-05-08T05:08:47.871Z,5.57
2018-05-08T05:11:14.732Z,4.80
2018-05-08T05:13:41.658Z,5.30
2018-05-08T05:16:08.668Z,4.67
2018-05-08T05:18:36.261Z,5.27
2018-05-08T05:21:03.122Z,5.40
2018-05-08T05:23:30.034Z,9.00
2018-05-08T05:25:56.882Z,9.90
2018-05-08T05:28:23.796Z,5.07
2018-05-08T05:30:50.711Z,5.03
2018-05-08T05:33:17.641Z,5.47
2018-05-08T05:35:44.484Z,5.17
2018-05-08T05:38:11.481Z,4.80
2018-05-08T05:40:39.087Z,4.77
2018-05-08T05:43:06.017Z,5.10
2018-05-08T05:45:32.886Z,5.53
2018-05-08T05:47:59.735Z,5.73
2018-05-08T05:50:26.687Z,5.07
2018-05-08T05:52:53.554Z,5.93
2018-05-08T05:55:20.487Z,7.90
2018-05-08T05:57:47.437Z,6.17
2018-05-08T06:00:14.306Z,6.73
2018-05-08T06:02:41.174Z,6.47
2018-05-08T06:05:08.183Z,8.50
2018-05-08T06:07:35.058Z,5.30
2018-05-08T06:10:02.760Z,5.83
2018-05-08T06:12:29.644Z,4.90
2018-05-08T06:14:56.579Z,6.37
2018-05-08T06:17:23.482Z,5.17
2018-05-08T06:19:50.354Z,5.63
2018-05-08T06:22:17.287Z,4.70
2018-05-08T06:24:44.164Z,3.87
2018-05-08T06:27:11.159Z,4.43
2018-05-08T06:29:38.021Z,4.40
2018-05-08T06:32:05.013Z,4.07
2018-05-08T06:34:31.871Z,5.37
2018-05-08T06:36:59.465Z,4.13
2018-05-08T06:39:26.405Z,4.33
2018-05-08T06:41:53.310Z,4.23
2018-05-08T06:44:20.319Z,5.10
2018-05-08T06:46:47.219Z,4.57
2018-05-08T06:49:14.810Z,4.13
2018-05-08T06:51:41.733Z,4.63
2018-05-08T06:54:08.626Z,4.47
2018-05-08T06:56:35.596Z,4.67
2018-05-08T06:59:02.488Z,4.10
2018-05-08T07:01:29.349Z,4.27
2018-05-08T07:03:56.325Z,3.90
2018-05-08T07:06:23.193Z,3.60
2018-05-08T07:08:50.874Z,4.33
2018-05-08T07:11:17.990Z,4.07
2018-05-08T07:13:44.940Z,3.87
2018-05-08T07:16:11.968Z,3.30
2018-05-08T07:18:38.823Z,3.40
2018-05-08T07:21:05.779Z,3.93
2018-05-08T07:23:32.731Z,4.33
2018-05-08T07:25:59.659Z,3.47
2018-05-08T07:28:26.870Z,4.13
2018-05-08T07:30:53.762Z,3.50
2018-05-08T07:33:20.889Z,4.57
2018-05-08T07:35:47.769Z,3.60
2018-05-08T07:38:14.699Z,4.00
2018-05-08T07:40:41.638Z,3.70
2018-05-08T07:43:09.296Z,3.90
2018-05-08T07:45:39.627Z,3.93
2018-05-08T07:48:06.733Z,3.53
2018-05-08T07:50:34.229Z,3.83
2018-05-08T07:53:01.097Z,3.83
2018-05-08T07:55:28.026Z,4.13
2018-05-08T07:57:54.902Z,4.00
2018-05-08T08:00:22.618Z,3.50
2018-05-08T08:02:49.556Z,3.77
2018-05-08T08:05:16.430Z,3.70
2018-05-08T08:07:43.367Z,3.90
2018-05-08T08:10:10.299Z,4.10
2018-05-08T08:12:37.163Z,4.57
2018-05-08T08:15:04.104Z,3.60
2018-05-08T08:17:31.014Z,3.73
2018-05-08T08:19:57.947Z,3.67
2018-05-08T08:22:24.809Z,4.10
2018-05-08T08:24:51.797Z,3.60
2018-05-08T08:27:18.654Z,4.27
2018-05-08T08:29:45.565Z,3.33
2018-05-08T08:32:12.497Z,5.10
2018-05-08T08:34:39.362Z,3.00
2018-05-08T08:37:06.307Z,3.70
2018-05-08T08:39:33.238Z,3.77
2018-05-08T08:42:00.179Z,3.30
2018-05-08T08:44:27.050Z,3.00
2018-05-08T08:46:53.909Z,3.20
2018-05-08T08:49:20.897Z,3.40
2018-05-08T08:51:47.753Z,3.20
2018-05-08T08:54:14.749Z,2.90
2018-05-08T08:56:41.605Z,3.70
2018-05-08T08:59:08.484Z,3.50
2018-05-08T09:01:35.846Z,3.17
2018-05-08T09:04:02.818Z,3.43
2018-05-08T09:06:29.754Z,3.67
2018-05-08T09:08:56.605Z,3.17
2018-05-08T09:11:23.523Z,3.50
2018-05-08T09:13:50.447Z,3.30
2018-05-08T09:16:17.379Z,3.57
2018-05-08T09:18:44.240Z,2.97
2018-05-08T09:21:11.894Z,3.30
2018-05-08T09:23:39.494Z,3.30
2018-05-08T09:26:06.416Z,3.43
2018-05-08T09:28:33.454Z,3.70
2018-05-08T09:31:01.065Z,3.70
2018-05-08T09:33:28.016Z,2.63
2018-05-08T09:35:54.933Z,3.20
2018-05-08T09:38:21.866Z,3.07
2018-05-08T09:40:48.715Z,2.90
2018-05-08T09:43:15.578Z,3.33
2018-05-08T09:45:42.529Z,2.80
2018-05-08T09:48:09.447Z,2.80
2018-05-08T09:50:36.305Z,2.67
2018-05-08T09:53:03.233Z,2.53
2018-05-08T09:55:30.895Z,3.50
2018-05-08T09:57:57.822Z,3.10
2018-05-08T10:00:25.646Z,3.10
2018-05-08T10:02:52.678Z,3.17
2018-05-08T10:05:19.539Z,3.70
2018-05-08T10:07:46.525Z,3.60
2018-05-08T10:10:13.389Z,3.07
2018-05-08T10:12:41.074Z,2.93
2018-05-08T10:15:07.959Z,3.27
2018-05-08T10:17:34.889Z,3.60
2018-05-08T10:20:01.840Z,2.87
2018-05-08T10:22:28.741Z,3.30
2018-05-08T10:24:55.686Z,3.37
2018-05-08T10:27:22.594Z,2.60
2018-05-08T10:29:49.581Z,3.87
2018-05-08T10:32:16.483Z,3.40
2018-05-08T10:34:43.418Z,2.90
2018-05-08T10:37:10.293Z,3.20
2018-05-08T10:39:38.033Z,3.53
2018-05-08T10:42:05.013Z,3.83
2018-05-08T10:44:31.990Z,3.37
2018-05-08T10:46:58.917Z,3.13
2018-05-08T10:49:25.777Z,2.90
2018-05-08T10:51:52.658Z,3.07
2018-05-08T10:54:19.655Z,3.17
2018-05-08T10:56:46.519Z,3.00
2018-05-08T10:59:13.463Z,3.00
2018-05-08T11:01:40.421Z,3.20
2018-05-08T11:04:08.064Z,2.70
2018-05-08T11:06:34.926Z,2.47
2018-05-08T11:09:01.867Z,2.77
2018-05-08T11:11:28.832Z,3.07
2018-05-08T11:13:55.694Z,2.60
2018-05-08T11:16:31.761Z,2.73
2018-05-08T11:19:00.068Z,3.13
2018-05-08T11:21:27.789Z,2.40
2018-05-08T11:23:54.666Z,2.77
2018-05-08T11:26:23.107Z,2.83
2018-05-08T11:28:50.299Z,3.43
2018-05-08T11:31:19.056Z,2.87
2018-05-08T11:33:45.997Z,3.00
2018-05-08T11:36:12.854Z,2.90
2018-05-08T11:38:39.786Z,2.60
2018-05-08T11:41:06.655Z,2.80
2018-05-08T11:43:33.583Z,2.47
2018-05-08T11:46:00.594Z,2.80
2018-05-08T11:48:27.543Z,2.50
2018-05-08T11:50:54.407Z,3.10
2018-05-08T11:53:21.432Z,2.80
2018-05-08T11:55:48.302Z,2.40
2018-05-08T11:58:15.168Z,2.40
2018-05-08T12:00:42.118Z,2.20
2018-05-08T12:03:08.970Z,2.60
2018-05-08T12:05:35.853Z,2.57
2018-05-08T12:08:02.811Z,3.17
2018-05-08T12:10:29.683Z,2.50
2018-05-08T12:12:56.618Z,3.20
2018-05-08T12:15:23.482Z,2.90
2018-05-08T12:17:50.457Z,2.47
2018-05-08T12:20:17.320Z,2.60
2018-05-08T12:22:44.258Z,2.50
2018-05-08T12:25:11.199Z,2.80
2018-05-08T12:27:38.815Z,2.87
2018-05-08T12:30:05.880Z,2.70
2018-05-08T12:32:32.942Z,2.87
2018-05-08T12:35:05.227Z,2.50
2018-05-08T12:37:35.365Z,2.80
2018-05-08T12:40:02.342Z,1.93
2018-05-08T12:42:29.319Z,2.87
2018-05-08T12:44:56.951Z,2.70
2018-05-08T12:47:26.208Z,2.80
2018-05-08T12:49:55.907Z,2.90
2018-05-08T12:52:30.592Z,2.40
2018-05-08T12:55:00.049Z,2.50
2018-05-08T12:57:28.748Z,2.93
2018-05-08T13:00:05.627Z,3.23
2018-05-08T13:02:39.182Z,3.37
2018-05-08T13:05:19.493Z,3.10
2018-05-08T13:07:53.587Z,2.97
2018-05-08T13:10:31.969Z,3.23
2018-05-08T13:13:12.692Z,3.57
2018-05-08T13:15:43.018Z,2.70
2018-05-08T13:18:13.979Z,3.00
2018-05-08T13:20:40.814Z,2.57
2018-05-08T13:23:07.775Z,2.80
2018-05-08T13:25:36.449Z,2.83
2018-05-08T13:28:05.202Z,2.77
2018-05-08T13:30:35.260Z,3.23
2018-05-08T13:33:02.611Z,3.10
2018-05-08T13:35:30.786Z,3.00
2018-05-08T13:37:57.742Z,2.70
2018-05-08T13:40:29.756Z,2.73
2018-05-08T13:45:55.794Z,3.00
2018-05-08T13:48:29.238Z,3.07
2018-05-08T13:50:56.854Z,3.13
2018-05-08T13:53:34.744Z,2.90
2018-05-08T13:56:07.608Z,3.00
2018-05-08T13:58:43.797Z,3.33
2018-05-08T14:01:17.605Z,3.53
2018-05-08T14:03:53.114Z,3.57
2018-05-08T14:09:17.006Z,3.47
2018-05-08T14:11:50.943Z,2.50
2018-05-08T14:14:20.999Z,3.53
2018-05-08T14:16:49.643Z,2.67
2018-05-08T14:19:18.567Z,2.77
2018-05-08T14:21:51.468Z,2.50
2018-05-08T14:24:19.024Z,2.60
2018-05-08T14:26:47.686Z,2.80
2018-05-08T14:29:15.405Z,2.90
2018-05-08T14:31:51.992Z,2.40
2018-05-08T14:34:22.012Z,2.40
2018-05-08T14:36:49.635Z,2.30
2018-05-08T14:39:17.297Z,2.50
2018-05-08T14:41:44.963Z,2.63
2018-05-08T14:44:12.494Z,2.33
2018-05-08T14:46:45.668Z,2.27
2018-05-08T14:49:13.641Z,2.07
2018-05-08T14:51:40.648Z,2.30
2018-05-08T14:54:08.586Z,2.73
2018-05-08T14:56:36.199Z,2.63
2018-05-08T14:59:03.150Z,2.83
2018-05-08T15:01:30.474Z,2.50
2018-05-08T15:03:57.418Z,2.17
2018-05-08T15:06:24.349Z,2.73
2018-05-08T15:08:52.363Z,2.90
2018-05-08T15:11:19.794Z,2.60
2018-05-08T15:13:46.730Z,2.73
2018-05-08T15:16:15.178Z,2.90
2018-05-08T15:18:42.050Z,3.00
2018-05-08T15:21:09.856Z,2.60
2018-05-08T15:23:40.452Z,3.20
2018-05-08T15:26:19.470Z,3.13
2018-05-08T15:28:47.335Z,2.40
2018-05-08T15:31:16.680Z,2.50
2018-05-08T15:33:48.110Z,2.57
2018-05-08T15:36:17.573Z,2.77
2018-05-08T15:38:45.865Z,3.87
2018-05-08T15:41:13.568Z,4.20
2018-05-08T15:43:43.084Z,3.10
2018-05-08T15:46:10.013Z,3.20
2018-05-08T15:48:38.716Z,2.93
2018-05-08T15:51:05.959Z,3.23
2018-05-08T15:53:37.539Z,2.90
2018-05-08T15:56:05.975Z,2.97
2018-05-08T15:58:33.881Z,3.23
2018-05-08T16:01:00.742Z,2.67
2018-05-08T16:03:27.640Z,3.30
2018-05-08T16:05:54.921Z,3.93
2018-05-08T16:08:24.704Z,3.10
2018-05-08T16:10:52.186Z,3.23
2018-05-08T16:13:20.286Z,2.77
2018-05-08T16:15:48.003Z,3.03
2018-05-08T16:18:15.677Z,3.40
2018-05-08T16:20:42.614Z,2.47
2018-05-08T16:23:10.208Z,3.00
2018-05-08T16:25:37.197Z,3.50
2018-05-08T16:28:06.208Z,3.10
2018-05-08T16:30:39.531Z,2.93
2018-05-08T16:33:14.966Z,3.00
2018-05-08T16:35:44.615Z,3.27
2018-05-08T16:38:11.526Z,3.00
2018-05-08T16:40:38.475Z,3.30
2018-05-08T16:43:05.347Z,3.40
2018-05-08T16:45:32.215Z,3.60
2018-05-08T16:47:59.193Z,2.93
2018-05-08T16:50:26.062Z,3.60
2018-05-08T16:52:53.672Z,3.83
2018-05-08T16:55:22.123Z,3.53
2018-05-08T16:57:49.075Z,4.07
2018-05-08T17:00:16.007Z,4.13
2018-05-08T17:02:47.051Z,4.27
2018-05-08T17:05:14.303Z,3.63
2018-05-08T17:07:41.163Z,4.03
2018-05-08T17:10:08.087Z,4.60
2018-05-08T17:12:34.949Z,4.07
2018-05-08T17:15:01.875Z,4.63
2018-05-08T17:17:28.801Z,3.60
2018-05-08T17:19:55.705Z,3.90
2018-05-08T17:22:22.619Z,3.87
2018-05-08T17:24:49.569Z,4.77
2018-05-08T17:27:16.422Z,5.50
2018-05-08T17:29:43.273Z,4.30
2018-05-08T17:32:10.266Z,4.00
2018-05-08T17:34:37.205Z,4.00
2018-05-08T17:37:04.901Z,5.00
2018-05-08T17:39:31.765Z,4.27
2018-05-08T17:41:58.721Z,4.43
2018-05-08T17:44:29.448Z,4.90
2018-05-08T17:46:56.384Z,5.10
2018-05-08T17:49:23.309Z,4.40
2018-05-08T17:51:50.268Z,4.80
2018-05-08T17:54:17.692Z,3.80
2018-05-08T17:56:44.693Z,4.20
2018-05-08T17:59:11.611Z,3.60
2018-05-08T18:01:38.542Z,4.00
2018-05-08T18:04:06.240Z,4.80
2018-05-08T18:06:33.227Z,3.90
2018-05-08T18:09:00.083Z,5.70
2018-05-08T18:11:27.733Z,5.07
2018-05-08T18:13:54.646Z,8.33
2018-05-08T18:16:21.519Z,3.80
2018-05-08T18:18:48.451Z,4.40
2018-05-08T18:21:15.307Z,4.17
2018-05-08T18:23:42.244Z,4.83
2018-05-08T18:26:20.274Z,4.57
2018-05-08T18:28:48.314Z,5.17
2018-05-08T18:31:15.296Z,4.80
2018-05-08T18:33:43.030Z,4.70
2018-05-08T18:36:09.885Z,5.27
2018-05-08T18:38:36.804Z,5.00
2018-05-08T18:41:03.871Z,4.73
2018-05-08T18:43:30.912Z,4.40
2018-05-08T18:46:00.651Z,4.93
2018-05-08T18:48:27.578Z,5.60
2018-05-08T18:50:54.429Z,5.20
2018-05-08T18:53:37.436Z,5.10
2018-05-08T18:56:14.585Z,4.90
2018-05-08T18:58:42.347Z,10.63
2018-05-08T19:01:09.226Z,25.90
2018-05-08T19:03:36.148Z,7.40
2018-05-08T19:06:03.073Z,9.57
2018-05-08T19:08:30.008Z,7.90
2018-05-08T19:11:03.814Z,5.20
2018-05-08T19:13:40.459Z,6.13
2018-05-08T19:16:21.183Z,5.40
2018-05-08T19:19:05.236Z,5.37
2018-05-08T19:21:45.696Z,5.60
2018-05-08T19:24:29.887Z,5.97
2018-05-08T19:27:10.570Z,4.60
2018-05-08T19:29:44.413Z,5.53
2018-05-08T19:32:11.327Z,5.40
2018-05-08T19:34:44.350Z,5.70
2018-05-08T19:37:17.335Z,5.50
2018-05-08T19:39:44.290Z,6.10
2018-05-08T19:42:11.150Z,7.17
2018-05-08T19:44:38.074Z,7.50
2018-05-08T19:47:04.926Z,9.70
2018-05-08T19:49:31.935Z,9.07
2018-05-08T19:51:59.539Z,7.60
2018-05-08T19:54:26.407Z,6.73
2018-05-08T19:56:53.338Z,6.63
2018-05-08T19:59:20.213Z,6.77
2018-05-08T20:01:47.082Z,6.60
2018-05-08T20:04:14.755Z,6.57
2018-05-08T20:06:42.386Z,7.43
2018-05-08T20:09:09.320Z,6.80
2018-05-08T20:11:36.177Z,6.30
2018-05-08T20:14:03.143Z,6.40
2018-05-08T20:16:30.822Z,5.80
2018-05-08T20:18:57.690Z,6.10
2018-05-08T20:21:24.623Z,6.47
2018-05-08T20:23:51.518Z,6.10
2018-05-08T20:26:18.515Z,6.07
2018-05-08T20:28:45.398Z,5.83
2018-05-08T20:31:12.317Z,5.60
2018-05-08T20:33:39.187Z,6.17
2018-05-08T20:36:06.130Z,6.50
2018-05-08T20:38:33.065Z,7.63
2018-05-08T20:40:59.962Z,6.20
2018-05-08T20:43:27.617Z,6.53
2018-05-08T20:45:54.547Z,5.60
2018-05-08T20:48:21.498Z,5.40
2018-05-08T20:50:48.425Z,6.10
2018-05-08T20:53:15.280Z,6.43
2018-05-08T20:55:42.218Z,6.20
2018-05-08T20:58:09.071Z,7.23
2018-05-08T21:00:35.986Z,6.40
2018-05-08T21:03:02.969Z,6.20
2018-05-08T21:05:29.892Z,6.60
2018-05-08T21:07:56.898Z,6.00
2018-05-08T21:10:23.762Z,6.90
2018-05-08T21:12:50.673Z,6.57
2018-05-08T21:15:18.339Z,6.43
2018-05-08T21:17:46.658Z,6.10
2018-05-08T21:20:13.597Z,7.13
2018-05-08T21:22:40.530Z,6.60
2018-05-08T21:25:07.481Z,6.73
2018-05-08T21:27:40.430Z,6.57
2018-05-08T21:30:14.160Z,7.67
2018-05-08T21:32:41.078Z,5.90
2018-05-08T21:35:08.002Z,6.10
2018-05-08T21:37:34.942Z,7.30
2018-05-08T21:40:03.602Z,8.20
2018-05-08T21:42:30.453Z,7.43
2018-05-08T21:44:57.317Z,7.60
2018-05-08T21:47:24.250Z,6.13
2018-05-08T21:49:51.111Z,6.70
2018-05-08T21:52:18.044Z,6.80
2018-05-08T21:54:44.926Z,6.90
2018-05-08T21:57:11.857Z,7.27
2018-05-08T21:59:38.714Z,9.00
2018-05-08T22:02:05.598Z,7.90
2018-05-08T22:04:32.538Z,7.77
2018-05-08T22:06:59.450Z,7.70
2018-05-08T22:09:26.332Z,6.63
2018-05-08T22:11:53.253Z,7.10
2018-05-08T22:14:20.915Z,8.90
2018-05-08T22:16:48.578Z,6.90
2018-05-08T22:19:16.252Z,6.87
2018-05-08T22:21:43.913Z,6.20
2018-05-08T22:24:10.838Z,7.80
2018-05-08T22:26:37.719Z,8.13
2018-05-08T22:29:04.645Z,7.20
2018-05-08T22:31:32.333Z,8.60
2018-05-08T22:33:59.266Z,7.93
2018-05-08T22:36:26.171Z,7.27
2018-05-08T22:38:53.135Z,6.90
2018-05-08T22:41:20.854Z,8.50
2018-05-08T22:43:47.786Z,8.20
2018-05-08T22:46:14.652Z,7.90
2018-05-08T22:48:41.579Z,8.17
2018-05-08T22:51:08.544Z,7.93
2018-05-08T22:53:35.460Z,7.17
2018-05-08T22:56:02.383Z,8.00
2018-05-08T22:58:30.101Z,7.10
2018-05-08T23:00:57.042Z,8.07
2018-05-08T23:03:23.906Z,7.53
2018-05-08T23:05:50.845Z,8.00
2018-05-08T23:08:17.726Z,7.50
2018-05-08T23:10:45.393Z,8.13
2018-05-08T23:13:13.062Z,8.50
2018-05-08T23:15:40.758Z,9.87
2018-05-08T23:18:07.639Z,9.40
2018-05-08T23:20:34.575Z,9.17
2018-05-08T23:23:01.502Z,9.20
2018-05-08T23:25:28.431Z,9.30
2018-05-08T23:27:55.351Z,9.90
2018-05-08T23:30:22.943Z,8.63
2018-05-08T23:32:49.940Z,8.70
2018-05-08T23:35:16.989Z,8.13
2018-05-08T23:37:43.981Z,8.13
2018-05-08T23:40:10.841Z,7.73
2018-05-08T23:42:37.696Z,9.50
2018-05-08T23:45:04.683Z,9.50
2018-05-08T23:47:31.557Z,9.90
2018-05-08T23:49:58.466Z,8.60
2018-05-08T23:52:25.355Z,9.40
2018-05-08T23:54:52.302Z,8.50
2018-05-08T23:57:19.166Z,9.00
2018-05-08T23:59:46.026Z,8.80
